sensor_id;sensor_type;location;lat;lon;timestamp;P1;P2;P0
45700;PMS5003;36277;32.852;-116.998;2023-03-11T00:00:22;5.40;5.40;4.00
45700;PMS5003;36277;32.852;-116.998;2023-03-11T00:02:50;6.00;6.00;4.20
45700;PMS5003;36277;32.852;-116.998;2023-03-11T00:05:23;6.60;6.60;4.60
45700;PMS5003;36277;32.852;-116.998;2023-03-11T00:07:54;5.20;5.20;4.20
45700;PMS5003;36277;32.852;-116.998;2023-03-11T00:10:22;5.20;5.20;4.00
45700;PMS5003;36277;32.852;-116.998;2023-03-11T00:12:53;4.00;4.00;3.00
45700;PMS5003;36277;32.852;-116.998;2023-03-11T00:15:19;5.20;5.20;4.00
45700;PMS5003;36277;32.852;-116.998;2023-03-11T00:17:47;4.20;4.20;3.20
45700;PMS5003;36277;32.852;-116.998;2023-03-11T00:20:18;5.20;5.20;4.40
45700;PMS5003;36277;32.852;-116.998;2023-03-11T00:23:06;5.00;5.00;4.20
45700;PMS5003;36277;32.852;-116.998;2023-03-11T00:25:34;5.60;5.60;4.80
45700;PMS5003;36277;32.852;-116.998;2023-03-11T00:28:02;5.00;5.00;3.80
45700;PMS5003;36277;32.852;-116.998;2023-03-11T00:30:30;4.00;4.00;3.40
45700;PMS5003;36277;32.852;-116.998;2023-03-11T00:32:56;4.00;4.00;4.00
45700;PMS5003;36277;32.852;-116.998;2023-03-11T00:35:25;5.60;5.60;3.80
45700;PMS5003;36277;32.852;-116.998;2023-03-11T00:37:55;4.00;4.00;3.80
45700;PMS5003;36277;32.852;-116.998;2023-03-11T00:40:27;2.40;2.40;1.40
45700;PMS5003;36277;32.852;-116.998;2023-03-11T00:42:55;4.60;4.60;3.60
45700;PMS5003;36277;32.852;-116.998;2023-03-11T00:45:22;4.00;4.00;3.80
45700;PMS5003;36277;32.852;-116.998;2023-03-11T00:47:50;3.40;3.40;3.00
45700;PMS5003;36277;32.852;-116.998;2023-03-11T00:50:18;3.80;3.80;3.00
45700;PMS5003;36277;32.852;-116.998;2023-03-11T00:52:49;3.00;3.00;3.00
45700;PMS5003;36277;32.852;-116.998;2023-03-11T00:55:17;3.40;3.40;3.00
45700;PMS5003;36277;32.852;-116.998;2023-03-11T00:57:46;2.40;2.40;2.20
45700;PMS5003;36277;32.852;-116.998;2023-03-11T01:00:13;4.40;4.40;3.40
45700;PMS5003;36277;32.852;-116.998;2023-03-11T01:02:41;0.60;0.60;0.00
45700;PMS5003;36277;32.852;-116.998;2023-03-11T01:05:08;3.00;3.00;2.00
45700;PMS5003;36277;32.852;-116.998;2023-03-11T01:07:35;3.00;3.00;3.00
45700;PMS5003;36277;32.852;-116.998;2023-03-11T01:10:01;4.60;4.60;3.80
45700;PMS5003;36277;32.852;-116.998;2023-03-11T01:12:28;1.60;1.60;1.00
45700;PMS5003;36277;32.852;-116.998;2023-03-11T01:14:54;4.00;4.00;4.00
45700;PMS5003;36277;32.852;-116.998;2023-03-11T01:17:20;3.40;3.40;2.60
45700;PMS5003;36277;32.852;-116.998;2023-03-11T01:19:47;3.00;3.00;3.00
45700;PMS5003;36277;32.852;-116.998;2023-03-11T01:22:14;2.00;2.00;2.00
45700;PMS5003;36277;32.852;-116.998;2023-03-11T01:24:41;2.80;2.80;2.00
45700;PMS5003;36277;32.852;-116.998;2023-03-11T01:27:07;2.00;2.00;2.00
45700;PMS5003;36277;32.852;-116.998;2023-03-11T01:29:34;4.00;3.00;3.00
45700;PMS5003;36277;32.852;-116.998;2023-03-11T01:32:00;3.00;3.00;3.00
45700;PMS5003;36277;32.852;-116.998;2023-03-11T01:34:26;3.00;3.00;2.60
45700;PMS5003;36277;32.852;-116.998;2023-03-11T01:36:53;2.00;2.00;2.00
45700;PMS5003;36277;32.852;-116.998;2023-03-11T01:39:19;3.00;3.00;3.00
45700;PMS5003;36277;32.852;-116.998;2023-03-11T01:41:45;3.00;3.00;2.60
45700;PMS5003;36277;32.852;-116.998;2023-03-11T01:44:11;3.80;3.80;3.40
45700;PMS5003;36277;32.852;-116.998;2023-03-11T01:49:16;3.00;3.00;2.80
45700;PMS5003;36277;32.852;-116.998;2023-03-11T01:51:44;4.00;4.00;3.00
45700;PMS5003;36277;32.852;-116.998;2023-03-11T01:54:16;3.20;3.20;3.00
45700;PMS5003;36277;32.852;-116.998;2023-03-11T01:56:46;0.60;0.60;0.60
45700;PMS5003;36277;32.852;-116.998;2023-03-11T01:59:15;3.00;3.00;2.60
45700;PMS5003;36277;32.852;-116.998;2023-03-11T02:01:50;3.00;3.00;2.40
45700;PMS5003;36277;32.852;-116.998;2023-03-11T02:04:23;3.00;3.00;2.40
45700;PMS5003;36277;32.852;-116.998;2023-03-11T02:06:49;3.20;3.00;2.00
45700;PMS5003;36277;32.852;-116.998;2023-03-11T02:09:16;4.00;4.00;3.00
45700;PMS5003;36277;32.852;-116.998;2023-03-11T02:11:43;2.20;2.20;2.00
45700;PMS5003;36277;32.852;-116.998;2023-03-11T02:14:09;3.00;3.00;3.00
45700;PMS5003;36277;32.852;-116.998;2023-03-11T02:16:35;4.80;4.80;4.00
45700;PMS5003;36277;32.852;-116.998;2023-03-11T02:19:24;3.80;3.80;2.80
45700;PMS5003;36277;32.852;-116.998;2023-03-11T02:22:10;3.20;3.20;3.00
45700;PMS5003;36277;32.852;-116.998;2023-03-11T02:27:13;5.00;5.00;4.00
45700;PMS5003;36277;32.852;-116.998;2023-03-11T02:29:43;3.60;3.60;3.00
45700;PMS5003;36277;32.852;-116.998;2023-03-11T02:32:12;3.40;3.40;2.60
45700;PMS5003;36277;32.852;-116.998;2023-03-11T02:34:39;4.00;4.00;3.80
45700;PMS5003;36277;32.852;-116.998;2023-03-11T02:37:06;3.80;3.80;3.00
45700;PMS5003;36277;32.852;-116.998;2023-03-11T02:39:36;3.00;3.00;3.00
45700;PMS5003;36277;32.852;-116.998;2023-03-11T02:42:04;4.40;4.40;3.80
45700;PMS5003;36277;32.852;-116.998;2023-03-11T02:44:37;3.20;3.20;3.00
45700;PMS5003;36277;32.852;-116.998;2023-03-11T02:47:06;3.80;3.80;3.40
45700;PMS5003;36277;32.852;-116.998;2023-03-11T02:49:32;3.00;3.00;3.00
45700;PMS5003;36277;32.852;-116.998;2023-03-11T02:52:01;4.00;4.00;3.00
45700;PMS5003;36277;32.852;-116.998;2023-03-11T02:54:27;4.80;4.80;4.40
45700;PMS5003;36277;32.852;-116.998;2023-03-11T02:56:53;5.00;5.00;4.00
45700;PMS5003;36277;32.852;-116.998;2023-03-11T02:59:20;3.80;3.80;3.80
45700;PMS5003;36277;32.852;-116.998;2023-03-11T03:01:46;4.20;4.20;3.60
45700;PMS5003;36277;32.852;-116.998;2023-03-11T03:04:12;4.40;4.40;3.80
45700;PMS5003;36277;32.852;-116.998;2023-03-11T03:06:38;4.00;4.00;3.20
45700;PMS5003;36277;32.852;-116.998;2023-03-11T03:09:04;4.00;4.00;3.40
45700;PMS5003;36277;32.852;-116.998;2023-03-11T03:11:31;4.00;4.00;3.00
45700;PMS5003;36277;32.852;-116.998;2023-03-11T03:13:57;5.00;5.00;4.00
45700;PMS5003;36277;32.852;-116.998;2023-03-11T03:16:24;4.00;4.00;4.00
45700;PMS5003;36277;32.852;-116.998;2023-03-11T03:18:50;3.00;3.00;2.80
45700;PMS5003;36277;32.852;-116.998;2023-03-11T03:21:17;4.60;4.60;4.00
45700;PMS5003;36277;32.852;-116.998;2023-03-11T03:23:43;5.00;5.00;4.00
45700;PMS5003;36277;32.852;-116.998;2023-03-11T03:26:11;5.60;5.60;4.80
45700;PMS5003;36277;32.852;-116.998;2023-03-11T03:28:38;2.00;2.00;1.00
45700;PMS5003;36277;32.852;-116.998;2023-03-11T03:31:05;4.60;4.60;4.00
45700;PMS5003;36277;32.852;-116.998;2023-03-11T03:33:33;4.20;4.20;3.20
45700;PMS5003;36277;32.852;-116.998;2023-03-11T03:36:00;5.60;5.60;4.20
45700;PMS5003;36277;32.852;-116.998;2023-03-11T03:38:30;4.60;4.60;4.20
45700;PMS5003;36277;32.852;-116.998;2023-03-11T03:40:56;3.20;3.20;3.00
45700;PMS5003;36277;32.852;-116.998;2023-03-11T03:43:22;4.00;4.00;4.00
45700;PMS5003;36277;32.852;-116.998;2023-03-11T03:45:58;4.80;4.00;4.00
45700;PMS5003;36277;32.852;-116.998;2023-03-11T03:48:29;4.00;4.00;4.00
45700;PMS5003;36277;32.852;-116.998;2023-03-11T03:51:00;4.80;4.80;4.00
45700;PMS5003;36277;32.852;-116.998;2023-03-11T03:53:32;5.80;5.80;4.60
45700;PMS5003;36277;32.852;-116.998;2023-03-11T03:56:09;6.00;6.00;5.00
45700;PMS5003;36277;32.852;-116.998;2023-03-11T03:58:36;4.40;4.40;4.00
45700;PMS5003;36277;32.852;-116.998;2023-03-11T04:01:03;5.00;5.00;4.00
45700;PMS5003;36277;32.852;-116.998;2023-03-11T04:03:31;5.00;5.00;4.00
45700;PMS5003;36277;32.852;-116.998;2023-03-11T04:06:08;2.00;2.00;1.40
45700;PMS5003;36277;32.852;-116.998;2023-03-11T04:08:40;5.40;5.40;4.40
45700;PMS5003;36277;32.852;-116.998;2023-03-11T04:11:06;4.00;4.00;4.00
45700;PMS5003;36277;32.852;-116.998;2023-03-11T04:13:33;5.60;5.60;4.80
45700;PMS5003;36277;32.852;-116.998;2023-03-11T04:16:01;4.20;4.20;3.40
45700;PMS5003;36277;32.852;-116.998;2023-03-11T04:18:29;5.00;5.00;5.00
45700;PMS5003;36277;32.852;-116.998;2023-03-11T04:20:55;5.00;5.00;4.40
45700;PMS5003;36277;32.852;-116.998;2023-03-11T04:23:21;6.00;6.00;5.00
45700;PMS5003;36277;32.852;-116.998;2023-03-11T04:25:48;5.60;5.60;5.00
45700;PMS5003;36277;32.852;-116.998;2023-03-11T04:28:14;6.00;6.00;5.40
45700;PMS5003;36277;32.852;-116.998;2023-03-11T04:30:41;4.80;4.80;4.00
45700;PMS5003;36277;32.852;-116.998;2023-03-11T04:33:07;6.00;6.00;5.00
45700;PMS5003;36277;32.852;-116.998;2023-03-11T04:35:33;5.60;5.60;5.00
45700;PMS5003;36277;32.852;-116.998;2023-03-11T04:38:02;4.40;4.40;4.00
45700;PMS5003;36277;32.852;-116.998;2023-03-11T04:40:28;5.40;5.40;4.80
45700;PMS5003;36277;32.852;-116.998;2023-03-11T04:42:54;6.80;6.80;5.80
45700;PMS5003;36277;32.852;-116.998;2023-03-11T04:45:20;5.00;5.00;4.40
45700;PMS5003;36277;32.852;-116.998;2023-03-11T04:47:48;5.00;5.00;4.00
45700;PMS5003;36277;32.852;-116.998;2023-03-11T04:50:14;6.20;6.20;5.00
45700;PMS5003;36277;32.852;-116.998;2023-03-11T04:52:41;4.20;4.20;4.00
45700;PMS5003;36277;32.852;-116.998;2023-03-11T04:55:07;6.00;6.00;5.00
45700;PMS5003;36277;32.852;-116.998;2023-03-11T04:57:34;5.00;5.00;4.00
45700;PMS5003;36277;32.852;-116.998;2023-03-11T05:00:01;4.00;4.00;3.60
45700;PMS5003;36277;32.852;-116.998;2023-03-11T05:02:32;5.20;5.20;5.00
45700;PMS5003;36277;32.852;-116.998;2023-03-11T05:04:59;5.00;5.00;4.60
45700;PMS5003;36277;32.852;-116.998;2023-03-11T05:07:25;6.00;6.00;5.00
45700;PMS5003;36277;32.852;-116.998;2023-03-11T05:09:52;5.80;5.80;5.00
45700;PMS5003;36277;32.852;-116.998;2023-03-11T05:12:18;4.00;4.00;4.00
45700;PMS5003;36277;32.852;-116.998;2023-03-11T05:14:44;3.00;3.00;2.00
45700;PMS5003;36277;32.852;-116.998;2023-03-11T05:17:10;6.20;6.20;6.00
45700;PMS5003;36277;32.852;-116.998;2023-03-11T05:19:39;5.80;5.80;5.00
45700;PMS5003;36277;32.852;-116.998;2023-03-11T05:22:06;6.00;6.00;5.00
45700;PMS5003;36277;32.852;-116.998;2023-03-11T05:24:32;5.00;5.00;4.80
45700;PMS5003;36277;32.852;-116.998;2023-03-11T05:27:00;6.00;6.00;5.00
45700;PMS5003;36277;32.852;-116.998;2023-03-11T05:29:26;6.00;6.00;5.20
45700;PMS5003;36277;32.852;-116.998;2023-03-11T05:31:53;5.80;5.80;5.00
45700;PMS5003;36277;32.852;-116.998;2023-03-11T05:34:19;5.60;5.60;4.60
45700;PMS5003;36277;32.852;-116.998;2023-03-11T05:36:45;6.00;5.40;4.80
45700;PMS5003;36277;32.852;-116.998;2023-03-11T05:39:12;6.60;6.60;5.40
45700;PMS5003;36277;32.852;-116.998;2023-03-11T05:41:39;7.00;7.00;6.20
45700;PMS5003;36277;32.852;-116.998;2023-03-11T05:44:05;6.20;6.20;5.40
45700;PMS5003;36277;32.852;-116.998;2023-03-11T05:46:31;4.40;4.40;4.00
45700;PMS5003;36277;32.852;-116.998;2023-03-11T05:48:58;6.00;6.00;5.40
45700;PMS5003;36277;32.852;-116.998;2023-03-11T05:51:24;6.80;6.80;5.60
45700;PMS5003;36277;32.852;-116.998;2023-03-11T05:53:51;4.00;4.00;4.00
45700;PMS5003;36277;32.852;-116.998;2023-03-11T05:56:18;6.80;6.80;5.80
45700;PMS5003;36277;32.852;-116.998;2023-03-11T05:58:45;5.00;5.00;4.80
45700;PMS5003;36277;32.852;-116.998;2023-03-11T06:01:16;5.80;5.60;5.20
45700;PMS5003;36277;32.852;-116.998;2023-03-11T06:03:43;6.00;6.00;5.00
45700;PMS5003;36277;32.852;-116.998;2023-03-11T06:06:10;7.00;7.00;5.00
45700;PMS5003;36277;32.852;-116.998;2023-03-11T06:08:37;5.00;5.00;4.20
45700;PMS5003;36277;32.852;-116.998;2023-03-11T06:11:05;4.00;4.00;3.00
45700;PMS5003;36277;32.852;-116.998;2023-03-11T06:13:33;4.80;4.80;4.00
45700;PMS5003;36277;32.852;-116.998;2023-03-11T06:16:00;5.20;5.20;4.60
45700;PMS5003;36277;32.852;-116.998;2023-03-11T06:18:27;5.00;5.00;4.40
45700;PMS5003;36277;32.852;-116.998;2023-03-11T06:20:56;3.40;3.40;2.80
45700;PMS5003;36277;32.852;-116.998;2023-03-11T06:23:23;4.80;4.80;4.00
45700;PMS5003;36277;32.852;-116.998;2023-03-11T06:25:57;5.80;5.80;5.00
45700;PMS5003;36277;32.852;-116.998;2023-03-11T06:28:24;4.00;4.00;3.00
45700;PMS5003;36277;32.852;-116.998;2023-03-11T06:30:51;4.00;4.00;4.00
45700;PMS5003;36277;32.852;-116.998;2023-03-11T06:33:21;4.20;4.20;4.00
45700;PMS5003;36277;32.852;-116.998;2023-03-11T06:35:55;4.00;4.00;3.00
45700;PMS5003;36277;32.852;-116.998;2023-03-11T06:38:22;4.20;4.20;3.60
45700;PMS5003;36277;32.852;-116.998;2023-03-11T06:40:48;5.00;5.00;4.00
45700;PMS5003;36277;32.852;-116.998;2023-03-11T06:43:15;5.00;5.00;5.00
45700;PMS5003;36277;32.852;-116.998;2023-03-11T06:45:41;3.20;3.20;3.00
45700;PMS5003;36277;32.852;-116.998;2023-03-11T06:48:07;4.00;4.00;3.80
45700;PMS5003;36277;32.852;-116.998;2023-03-11T06:50:34;5.00;5.00;4.00
45700;PMS5003;36277;32.852;-116.998;2023-03-11T06:53:00;3.40;3.40;3.00
45700;PMS5003;36277;32.852;-116.998;2023-03-11T06:55:27;4.20;4.20;4.00
45700;PMS5003;36277;32.852;-116.998;2023-03-11T06:57:56;4.40;4.40;4.00
45700;PMS5003;36277;32.852;-116.998;2023-03-11T07:00:22;3.20;3.20;3.00
45700;PMS5003;36277;32.852;-116.998;2023-03-11T07:02:48;3.80;3.80;3.00
45700;PMS5003;36277;32.852;-116.998;2023-03-11T07:05:14;4.00;4.00;4.00
45700;PMS5003;36277;32.852;-116.998;2023-03-11T07:07:42;4.20;4.20;4.00
45700;PMS5003;36277;32.852;-116.998;2023-03-11T07:10:08;4.00;4.00;4.00
45700;PMS5003;36277;32.852;-116.998;2023-03-11T07:12:36;5.20;5.20;4.20
45700;PMS5003;36277;32.852;-116.998;2023-03-11T07:15:02;4.40;4.40;4.00
45700;PMS5003;36277;32.852;-116.998;2023-03-11T07:17:29;3.40;3.40;2.60
45700;PMS5003;36277;32.852;-116.998;2023-03-11T07:19:55;4.00;4.00;4.00
45700;PMS5003;36277;32.852;-116.998;2023-03-11T07:22:21;4.60;4.60;4.00
45700;PMS5003;36277;32.852;-116.998;2023-03-11T07:24:48;4.00;4.00;3.80
45700;PMS5003;36277;32.852;-116.998;2023-03-11T07:27:14;3.60;3.60;3.00
45700;PMS5003;36277;32.852;-116.998;2023-03-11T07:29:41;4.80;4.80;4.00
45700;PMS5003;36277;32.852;-116.998;2023-03-11T07:32:07;3.60;3.60;3.00
45700;PMS5003;36277;32.852;-116.998;2023-03-11T07:34:34;2.80;2.80;2.60
45700;PMS5003;36277;32.852;-116.998;2023-03-11T07:37:00;4.20;4.20;3.40
45700;PMS5003;36277;32.852;-116.998;2023-03-11T07:39:27;2.00;2.00;2.00
45700;PMS5003;36277;32.852;-116.998;2023-03-11T07:41:54;4.00;4.00;3.60
45700;PMS5003;36277;32.852;-116.998;2023-03-11T07:44:20;2.60;2.60;2.60
45700;PMS5003;36277;32.852;-116.998;2023-03-11T07:46:46;3.80;3.80;3.60
45700;PMS5003;36277;32.852;-116.998;2023-03-11T07:49:12;1.80;1.80;1.80
45700;PMS5003;36277;32.852;-116.998;2023-03-11T07:51:39;3.00;3.00;3.00
45700;PMS5003;36277;32.852;-116.998;2023-03-11T07:54:06;2.00;2.00;1.40
45700;PMS5003;36277;32.852;-116.998;2023-03-11T07:56:33;3.40;3.40;3.20
45700;PMS5003;36277;32.852;-116.998;2023-03-11T07:59:00;2.40;2.40;2.20
45700;PMS5003;36277;32.852;-116.998;2023-03-11T08:01:29;2.00;2.00;2.00
45700;PMS5003;36277;32.852;-116.998;2023-03-11T08:04:11;3.00;3.00;2.40
45700;PMS5003;36277;32.852;-116.998;2023-03-11T08:06:41;3.00;3.00;2.60
45700;PMS5003;36277;32.852;-116.998;2023-03-11T08:09:09;2.80;2.80;2.00
45700;PMS5003;36277;32.852;-116.998;2023-03-11T08:11:35;2.00;2.00;1.60
45700;PMS5003;36277;32.852;-116.998;2023-03-11T08:14:02;2.00;2.00;2.00
45700;PMS5003;36277;32.852;-116.998;2023-03-11T08:16:29;3.00;3.00;2.00
45700;PMS5003;36277;32.852;-116.998;2023-03-11T08:18:56;2.20;2.20;2.00
45700;PMS5003;36277;32.852;-116.998;2023-03-11T08:21:23;2.00;2.00;1.20
45700;PMS5003;36277;32.852;-116.998;2023-03-11T08:23:51;2.80;2.80;2.00
45700;PMS5003;36277;32.852;-116.998;2023-03-11T08:26:21;2.80;2.80;2.40
45700;PMS5003;36277;32.852;-116.998;2023-03-11T08:28:47;2.80;2.80;2.20
45700;PMS5003;36277;32.852;-116.998;2023-03-11T08:31:15;2.00;2.00;2.00
45700;PMS5003;36277;32.852;-116.998;2023-03-11T08:33:43;1.80;1.80;1.80
45700;PMS5003;36277;32.852;-116.998;2023-03-11T08:36:11;1.00;1.00;1.00
45700;PMS5003;36277;32.852;-116.998;2023-03-11T08:38:38;2.00;2.00;2.00
45700;PMS5003;36277;32.852;-116.998;2023-03-11T08:41:04;2.00;2.00;2.00
45700;PMS5003;36277;32.852;-116.998;2023-03-11T08:43:30;3.00;3.00;3.00
45700;PMS5003;36277;32.852;-116.998;2023-03-11T08:45:58;2.00;2.00;1.80
45700;PMS5003;36277;32.852;-116.998;2023-03-11T08:48:26;2.00;2.00;2.00
45700;PMS5003;36277;32.852;-116.998;2023-03-11T08:50:52;3.00;3.00;2.80
45700;PMS5003;36277;32.852;-116.998;2023-03-11T08:53:19;2.00;2.00;1.80
45700;PMS5003;36277;32.852;-116.998;2023-03-11T08:55:46;2.60;2.60;2.00
45700;PMS5003;36277;32.852;-116.998;2023-03-11T08:58:12;1.60;1.60;1.40
45700;PMS5003;36277;32.852;-116.998;2023-03-11T09:00:38;2.00;2.00;2.00
45700;PMS5003;36277;32.852;-116.998;2023-03-11T09:03:05;2.00;2.00;2.00
45700;PMS5003;36277;32.852;-116.998;2023-03-11T09:05:31;2.00;2.00;1.00
45700;PMS5003;36277;32.852;-116.998;2023-03-11T09:07:57;2.00;2.00;2.00
45700;PMS5003;36277;32.852;-116.998;2023-03-11T09:10:23;1.40;1.40;1.40
45700;PMS5003;36277;32.852;-116.998;2023-03-11T09:12:50;2.20;2.20;2.00
45700;PMS5003;36277;32.852;-116.998;2023-03-11T09:15:16;1.20;1.20;1.20
45700;PMS5003;36277;32.852;-116.998;2023-03-11T09:17:42;1.40;1.40;1.40
45700;PMS5003;36277;32.852;-116.998;2023-03-11T09:20:10;1.00;1.00;1.00
45700;PMS5003;36277;32.852;-116.998;2023-03-11T09:22:37;1.00;1.00;1.00
45700;PMS5003;36277;32.852;-116.998;2023-03-11T09:25:04;1.00;1.00;1.00
45700;PMS5003;36277;32.852;-116.998;2023-03-11T09:27:30;0.80;0.80;0.80
45700;PMS5003;36277;32.852;-116.998;2023-03-11T09:29:57;1.00;1.00;1.00
45700;PMS5003;36277;32.852;-116.998;2023-03-11T09:32:23;1.40;1.40;1.40
45700;PMS5003;36277;32.852;-116.998;2023-03-11T09:34:49;0.60;0.60;0.00
45700;PMS5003;36277;32.852;-116.998;2023-03-11T09:37:15;2.00;2.00;2.00
45700;PMS5003;36277;32.852;-116.998;2023-03-11T09:39:42;2.00;2.00;2.00
45700;PMS5003;36277;32.852;-116.998;2023-03-11T09:44:57;2.00;2.00;1.80
45700;PMS5003;36277;32.852;-116.998;2023-03-11T09:47:39;1.40;1.40;1.00
45700;PMS5003;36277;32.852;-116.998;2023-03-11T09:50:45;1.40;1.40;1.40
45700;PMS5003;36277;32.852;-116.998;2023-03-11T09:55:51;1.80;1.80;1.20
45700;PMS5003;36277;32.852;-116.998;2023-03-11T10:04:02;1.00;1.00;1.00
45700;PMS5003;36277;32.852;-116.998;2023-03-11T10:06:35;1.00;1.00;1.00
45700;PMS5003;36277;32.852;-116.998;2023-03-11T10:12:05;1.00;1.00;1.00
45700;PMS5003;36277;32.852;-116.998;2023-03-11T10:14:40;1.00;1.00;1.00
45700;PMS5003;36277;32.852;-116.998;2023-03-11T10:29:18;1.00;1.00;1.00
45700;PMS5003;36277;32.852;-116.998;2023-03-11T10:37:34;1.00;1.00;1.00
45700;PMS5003;36277;32.852;-116.998;2023-03-11T10:40:15;0.60;0.60;0.60
45700;PMS5003;36277;32.852;-116.998;2023-03-11T10:42:58;1.00;1.00;1.00
45700;PMS5003;36277;32.852;-116.998;2023-03-11T10:45:38;1.00;1.00;1.00
45700;PMS5003;36277;32.852;-116.998;2023-03-11T10:48:12;1.00;1.00;1.00
45700;PMS5003;36277;32.852;-116.998;2023-03-11T10:53:16;1.60;1.60;1.20
45700;PMS5003;36277;32.852;-116.998;2023-03-11T10:55:45;1.00;1.00;1.00
45700;PMS5003;36277;32.852;-116.998;2023-03-11T10:58:18;1.00;1.00;1.00
45700;PMS5003;36277;32.852;-116.998;2023-03-11T11:01:03;1.00;1.00;0.80
45700;PMS5003;36277;32.852;-116.998;2023-03-11T11:03:30;1.00;1.00;1.00
45700;PMS5003;36277;32.852;-116.998;2023-03-11T11:06:03;0.80;0.80;0.60
45700;PMS5003;36277;32.852;-116.998;2023-03-11T11:08:31;1.00;1.00;1.00
45700;PMS5003;36277;32.852;-116.998;2023-03-11T11:10:59;0.60;0.60;0.20
45700;PMS5003;36277;32.852;-116.998;2023-03-11T11:13:32;0.00;0.00;0.00
45700;PMS5003;36277;32.852;-116.998;2023-03-11T11:18:31;1.00;1.00;1.00
45700;PMS5003;36277;32.852;-116.998;2023-03-11T11:21:02;0.00;0.00;0.00
45700;PMS5003;36277;32.852;-116.998;2023-03-11T11:23:38;0.60;0.60;0.60
45700;PMS5003;36277;32.852;-116.998;2023-03-11T11:26:22;1.00;1.00;1.00
45700;PMS5003;36277;32.852;-116.998;2023-03-11T11:29:06;1.00;1.00;0.00
45700;PMS5003;36277;32.852;-116.998;2023-03-11T11:31:40;1.00;1.00;1.00
45700;PMS5003;36277;32.852;-116.998;2023-03-11T11:36:55;0.20;0.20;0.20
45700;PMS5003;36277;32.852;-116.998;2023-03-11T11:39:32;1.00;1.00;0.80
45700;PMS5003;36277;32.852;-116.998;2023-03-11T11:42:10;0.00;0.00;0.00
45700;PMS5003;36277;32.852;-116.998;2023-03-11T11:44:39;0.40;0.40;0.20
45700;PMS5003;36277;32.852;-116.998;2023-03-11T11:47:12;0.80;0.80;0.80
45700;PMS5003;36277;32.852;-116.998;2023-03-11T11:49:52;0.00;0.00;0.00
45700;PMS5003;36277;32.852;-116.998;2023-03-11T11:52:23;0.00;0.00;0.00
45700;PMS5003;36277;32.852;-116.998;2023-03-11T11:55:02;0.40;0.40;0.40
45700;PMS5003;36277;32.852;-116.998;2023-03-11T11:57:39;1.00;1.00;1.00
45700;PMS5003;36277;32.852;-116.998;2023-03-11T12:00:12;0.00;0.00;0.00
45700;PMS5003;36277;32.852;-116.998;2023-03-11T12:05:30;0.00;0.00;0.00
45700;PMS5003;36277;32.852;-116.998;2023-03-11T12:18:56;0.00;0.00;0.00
45700;PMS5003;36277;32.852;-116.998;2023-03-11T12:26:45;0.00;0.00;0.00
45700;PMS5003;36277;32.852;-116.998;2023-03-11T12:29:30;1.00;1.00;0.00
45700;PMS5003;36277;32.852;-116.998;2023-03-11T12:32:00;0.40;0.40;0.40
45700;PMS5003;36277;32.852;-116.998;2023-03-11T12:34:27;0.00;0.00;0.00
45700;PMS5003;36277;32.852;-116.998;2023-03-11T12:36:56;0.80;0.80;0.80
45700;PMS5003;36277;32.852;-116.998;2023-03-11T12:39:34;1.00;1.00;1.00
45700;PMS5003;36277;32.852;-116.998;2023-03-11T12:44:36;0.00;0.00;0.00
45700;PMS5003;36277;32.852;-116.998;2023-03-11T12:54:43;0.00;0.00;0.00
45700;PMS5003;36277;32.852;-116.998;2023-03-11T12:59:53;0.00;0.00;0.00
45700;PMS5003;36277;32.852;-116.998;2023-03-11T13:08:48;0.00;0.00;0.00
45700;PMS5003;36277;32.852;-116.998;2023-03-11T13:11:34;0.00;0.00;0.00
45700;PMS5003;36277;32.852;-116.998;2023-03-11T13:19:55;0.00;0.00;0.00
45700;PMS5003;36277;32.852;-116.998;2023-03-11T13:22:40;0.00;0.00;0.00
45700;PMS5003;36277;32.852;-116.998;2023-03-11T13:25:34;0.00;0.00;0.00
45700;PMS5003;36277;32.852;-116.998;2023-03-11T13:36:36;0.00;0.00;0.00
45700;PMS5003;36277;32.852;-116.998;2023-03-11T13:39:05;0.00;0.00;0.00
45700;PMS5003;36277;32.852;-116.998;2023-03-11T13:41:46;0.00;0.00;0.00
45700;PMS5003;36277;32.852;-116.998;2023-03-11T13:47:13;0.00;0.00;0.00
45700;PMS5003;36277;32.852;-116.998;2023-03-11T13:49:49;0.00;0.00;0.00
45700;PMS5003;36277;32.852;-116.998;2023-03-11T13:52:24;0.00;0.00;0.00
45700;PMS5003;36277;32.852;-116.998;2023-03-11T13:55:17;0.00;0.00;0.00
45700;PMS5003;36277;32.852;-116.998;2023-03-11T13:57:51;0.00;0.00;0.00
45700;PMS5003;36277;32.852;-116.998;2023-03-11T14:00:19;0.00;0.00;0.00
45700;PMS5003;36277;32.852;-116.998;2023-03-11T14:02:53;0.00;0.00;0.00
45700;PMS5003;36277;32.852;-116.998;2023-03-11T14:05:36;0.00;0.00;0.00
45700;PMS5003;36277;32.852;-116.998;2023-03-11T14:08:12;0.00;0.00;0.00
45700;PMS5003;36277;32.852;-116.998;2023-03-11T14:10:53;0.00;0.00;0.00
45700;PMS5003;36277;32.852;-116.998;2023-03-11T14:13:25;0.00;0.00;0.00
45700;PMS5003;36277;32.852;-116.998;2023-03-11T14:16:01;0.00;0.00;0.00
45700;PMS5003;36277;32.852;-116.998;2023-03-11T14:18:34;0.00;0.00;0.00
45700;PMS5003;36277;32.852;-116.998;2023-03-11T14:21:02;0.00;0.00;0.00
45700;PMS5003;36277;32.852;-116.998;2023-03-11T14:23:32;0.00;0.00;0.00
45700;PMS5003;36277;32.852;-116.998;2023-03-11T14:26:05;0.00;0.00;0.00
45700;PMS5003;36277;32.852;-116.998;2023-03-11T14:28:35;0.00;0.00;0.00
45700;PMS5003;36277;32.852;-116.998;2023-03-11T14:31:04;0.00;0.00;0.00
45700;PMS5003;36277;32.852;-116.998;2023-03-11T14:33:31;0.00;0.00;0.00
45700;PMS5003;36277;32.852;-116.998;2023-03-11T14:35:59;0.00;0.00;0.00
45700;PMS5003;36277;32.852;-116.998;2023-03-11T14:38:29;0.00;0.00;0.00
45700;PMS5003;36277;32.852;-116.998;2023-03-11T14:40:58;0.00;0.00;0.00
45700;PMS5003;36277;32.852;-116.998;2023-03-11T14:43:28;0.00;0.00;0.00
45700;PMS5003;36277;32.852;-116.998;2023-03-11T14:45:58;0.00;0.00;0.00
45700;PMS5003;36277;32.852;-116.998;2023-03-11T14:51:12;0.00;0.00;0.00
45700;PMS5003;36277;32.852;-116.998;2023-03-11T14:54:05;0.00;0.00;0.00
45700;PMS5003;36277;32.852;-116.998;2023-03-11T14:56:41;0.00;0.00;0.00
45700;PMS5003;36277;32.852;-116.998;2023-03-11T14:59:17;0.00;0.00;0.00
45700;PMS5003;36277;32.852;-116.998;2023-03-11T15:01:53;0.00;0.00;0.00
45700;PMS5003;36277;32.852;-116.998;2023-03-11T15:06:57;1.00;1.00;1.00
45700;PMS5003;36277;32.852;-116.998;2023-03-11T15:09:24;0.00;0.00;0.00
45700;PMS5003;36277;32.852;-116.998;2023-03-11T15:11:53;0.00;0.00;0.00
45700;PMS5003;36277;32.852;-116.998;2023-03-11T15:14:30;0.00;0.00;0.00
45700;PMS5003;36277;32.852;-116.998;2023-03-11T15:17:18;0.00;0.00;0.00
45700;PMS5003;36277;32.852;-116.998;2023-03-11T15:19:55;0.00;0.00;0.00
45700;PMS5003;36277;32.852;-116.998;2023-03-11T15:22:28;0.00;0.00;0.00
45700;PMS5003;36277;32.852;-116.998;2023-03-11T15:25:01;0.00;0.00;0.00
45700;PMS5003;36277;32.852;-116.998;2023-03-11T15:27:37;0.00;0.00;0.00
45700;PMS5003;36277;32.852;-116.998;2023-03-11T15:30:16;0.00;0.00;0.00
45700;PMS5003;36277;32.852;-116.998;2023-03-11T15:32:46;0.00;0.00;0.00
45700;PMS5003;36277;32.852;-116.998;2023-03-11T15:35:20;0.40;0.40;0.00
45700;PMS5003;36277;32.852;-116.998;2023-03-11T15:38:09;0.00;0.00;0.00
45700;PMS5003;36277;32.852;-116.998;2023-03-11T15:40:52;0.00;0.00;0.00
45700;PMS5003;36277;32.852;-116.998;2023-03-11T15:43:26;0.00;0.00;0.00
45700;PMS5003;36277;32.852;-116.998;2023-03-11T15:45:55;0.00;0.00;0.00